Time;durP1;ratioP1;P1;durP2;ratioP2;P2;SDS_P1;SDS_P2;PMS_P1;PMS_P2;Temp;Humidity;BMP_temperature;BMP_pressure;BME280_temperature;BME280_humidity;BME280_pressure;Samples;Min_cycle;Max_cycle;Signal;HPM_P1;HPM_P2
2024/01/14 00:01:25;;;;;;;68.90;10.75;;;;;;;;;;4988275;28;20082;-81
2024/01/14 00:03:50;;;;;;;286.10;23.05;;;;;;;;;;4986884;28;20057;-81
2024/01/14 00:06:16;;;;;;;24.75;10.68;;;;;;;;;;4992917;28;20039;-81
2024/01/14 00:08:41;;;;;;;38.20;10.90;;;;;;;;;;4989393;28;20085;-81
2024/01/14 00:11:07;;;;;;;98.72;13.02;;;;;;;;;;4987226;28;20066;-79
2024/01/14 00:13:33;;;;;;;26.33;10.52;;;;;;;;;;4982927;28;20039;-81
2024/01/14 00:15:58;;;;;;;44.60;13.73;;;;;;;;;;4974398;28;20061;-80
2024/01/14 00:18:23;;;;;;;657.83;41.13;;;;;;;;;;4993681;28;20711;-79
2024/01/14 00:20:49;;;;;;;92.25;13.52;;;;;;;;;;4990051;28;20068;-80
2024/01/14 00:23:14;;;;;;;108.85;12.65;;;;;;;;;;4990169;28;20039;-82
2024/01/14 00:25:39;;;;;;;22.38;10.13;;;;;;;;;;4987331;28;20049;-81
2024/01/14 00:28:05;;;;;;;46.42;9.63;;;;;;;;;;4976225;28;20042;-82
2024/01/14 00:30:30;;;;;;;30.27;10.00;;;;;;;;;;4986947;28;20127;-81
2024/01/14 00:32:55;;;;;;;29.25;9.82;;;;;;;;;;4981090;28;20121;-79
2024/01/14 00:35:21;;;;;;;30.23;9.23;;;;;;;;;;4982178;28;20423;-79
2024/01/14 00:37:47;;;;;;;287.42;22.35;;;;;;;;;;4981448;28;20049;-80
2024/01/14 00:40:13;;;;;;;383.15;23.58;;;;;;;;;;4967099;28;20092;-81
2024/01/14 00:42:38;;;;;;;394.85;26.65;;;;;;;;;;4953187;28;20043;-81
2024/01/14 00:45:04;;;;;;;22.88;9.48;;;;;;;;;;4977201;28;20035;-82
2024/01/14 00:47:30;;;;;;;237.07;19.77;;;;;;;;;;4987474;28;20679;-81
2024/01/14 00:49:58;;;;;;;26.80;10.57;;;;;;;;;;4979817;28;20035;-81
2024/01/14 00:52:24;;;;;;;24.50;10.60;;;;;;;;;;4979498;28;20078;-81
2024/01/14 00:54:49;;;;;;;17.60;8.13;;;;;;;;;;4976599;28;20046;-82
2024/01/14 00:57:15;;;;;;;27.63;8.65;;;;;;;;;;4980653;28;20381;-81
2024/01/14 00:59:40;;;;;;;63.55;10.07;;;;;;;;;;4964155;28;20094;-81
2024/01/14 01:02:05;;;;;;;19.23;9.48;;;;;;;;;;4979322;28;20039;-81
2024/01/14 01:04:31;;;;;;;20.10;9.23;;;;;;;;;;4977693;28;20031;-82
2024/01/14 01:06:56;;;;;;;21.17;9.60;;;;;;;;;;4983063;28;20038;-82
2024/01/14 01:09:21;;;;;;;22.13;9.90;;;;;;;;;;4966474;28;20030;-80
2024/01/14 01:11:46;;;;;;;193.65;12.93;;;;;;;;;;4980634;28;20033;-82
2024/01/14 01:14:14;;;;;;;38.33;6.88;;;;;;;;;;4983183;28;20151;-82
2024/01/14 01:16:39;;;;;;;33.22;8.90;;;;;;;;;;4975668;28;20400;-80
2024/01/14 01:19:04;;;;;;;5.88;3.40;;;;;;;;;;4980899;28;20042;-82
2024/01/14 01:21:30;;;;;;;147.88;12.25;;;;;;;;;;4983845;28;20499;-78
2024/01/14 01:23:55;;;;;;;51.03;8.85;;;;;;;;;;4981587;28;20034;-80
2024/01/14 01:26:20;;;;;;;45.08;7.35;;;;;;;;;;4978425;28;20498;-82
2024/01/14 01:28:46;;;;;;;38.72;10.30;;;;;;;;;;4984156;28;20138;-82
2024/01/14 01:31:11;;;;;;;89.85;9.25;;;;;;;;;;4966186;28;20022;-80
2024/01/14 01:33:36;;;;;;;20.92;8.10;;;;;;;;;;4984476;28;20027;-82
2024/01/14 01:36:02;;;;;;;19.10;6.75;;;;;;;;;;4966991;28;20161;-79
2024/01/14 01:38:27;;;;;;;21.75;8.82;;;;;;;;;;4985590;28;20216;-81
2024/01/14 01:40:52;;;;;;;34.55;8.30;;;;;;;;;;4963639;28;20463;-81
2024/01/14 01:43:17;;;;;;;21.42;8.85;;;;;;;;;;4945489;28;20062;-81
2024/01/14 01:45:43;;;;;;;37.20;8.00;;;;;;;;;;4962630;28;20050;-80
2024/01/14 01:48:08;;;;;;;19.23;7.85;;;;;;;;;;4981858;28;20104;-82
2024/01/14 01:50:35;;;;;;;98.88;11.15;;;;;;;;;;4979946;28;20517;-78
2024/01/14 01:53:01;;;;;;;57.55;8.38;;;;;;;;;;4972576;28;20038;-81
2024/01/14 01:55:26;;;;;;;25.30;10.05;;;;;;;;;;4976981;28;20042;-82
2024/01/14 01:57:52;;;;;;;56.55;10.13;;;;;;;;;;4960916;28;20530;-81
2024/01/14 02:00:19;;;;;;;19.60;7.57;;;;;;;;;;4968827;28;20042;-80
2024/01/14 02:02:44;;;;;;;133.27;11.88;;;;;;;;;;4971637;28;20443;-81
2024/01/14 02:05:10;;;;;;;16.17;8.25;;;;;;;;;;4977352;28;20039;-82
2024/01/14 02:07:36;;;;;;;12.80;6.40;;;;;;;;;;4983708;28;20050;-81
2024/01/14 02:10:02;;;;;;;35.38;13.13;;;;;;;;;;4981705;28;20915;-82
2024/01/14 02:12:27;;;;;;;18.05;7.88;;;;;;;;;;4978982;28;20046;-81
2024/01/14 02:14:53;;;;;;;23.80;6.50;;;;;;;;;;4995238;28;20470;-81
2024/01/14 02:17:18;;;;;;;14.95;7.90;;;;;;;;;;4959638;28;20043;-80
2024/01/14 02:19:43;;;;;;;20.30;8.80;;;;;;;;;;4967297;28;20037;-81
2024/01/14 02:22:13;;;;;;;11.23;6.55;;;;;;;;;;4962643;28;20140;-81
2024/01/14 02:24:39;;;;;;;28.42;9.45;;;;;;;;;;4980031;28;20043;-81
2024/01/14 02:27:04;;;;;;;32.22;7.78;;;;;;;;;;4978414;28;20580;-79
2024/01/14 02:29:30;;;;;;;1.38;1.27;;;;;;;;;;4987511;28;20039;-80
2024/01/14 02:31:56;;;;;;;6.03;2.78;;;;;;;;;;4957830;28;20038;-81
2024/01/14 02:34:22;;;;;;;12.43;6.38;;;;;;;;;;4982653;28;20030;-80
2024/01/14 02:36:47;;;;;;;18.02;10.10;;;;;;;;;;4966897;28;20377;-80
2024/01/14 02:39:12;;;;;;;26.90;7.75;;;;;;;;;;4988847;28;20551;-79
2024/01/14 02:41:38;;;;;;;19.10;6.88;;;;;;;;;;4983917;28;20494;-80
2024/01/14 02:44:03;;;;;;;24.67;7.35;;;;;;;;;;4989641;28;20050;-81
2024/01/14 02:46:29;;;;;;;20.98;8.57;;;;;;;;;;4983421;28;20123;-81
2024/01/14 02:48:55;;;;;;;18.75;6.88;;;;;;;;;;4986404;28;20111;-79
2024/01/14 02:51:21;;;;;;;13.00;6.32;;;;;;;;;;4950455;28;20098;-80
2024/01/14 02:53:46;;;;;;;11.23;6.97;;;;;;;;;;4983084;28;20046;-81
2024/01/14 02:56:12;;;;;;;14.00;5.78;;;;;;;;;;4978588;28;20043;-81
2024/01/14 02:58:38;;;;;;;15.90;6.55;;;;;;;;;;4988522;28;20074;-80
2024/01/14 03:01:04;;;;;;;16.25;5.85;;;;;;;;;;4983244;28;20041;-80
2024/01/14 03:03:29;;;;;;;15.48;6.55;;;;;;;;;;4982938;28;20047;-81
2024/01/14 03:05:54;;;;;;;12.93;6.53;;;;;;;;;;4962107;28;20047;-82
2024/01/14 03:08:20;;;;;;;18.45;7.88;;;;;;;;;;4967037;28;20065;-82
2024/01/14 03:10:45;;;;;;;13.40;5.15;;;;;;;;;;4977556;28;20068;-82
2024/01/14 03:13:13;;;;;;;12.10;6.03;;;;;;;;;;4982107;28;20038;-82
2024/01/14 03:15:39;;;;;;;12.27;5.50;;;;;;;;;;4980740;28;20407;-81
2024/01/14 03:18:04;;;;;;;12.20;5.35;;;;;;;;;;4983930;28;20038;-80
2024/01/14 03:20:29;;;;;;;19.40;6.80;;;;;;;;;;4984146;28;20057;-81
2024/01/14 03:22:55;;;;;;;12.70;6.72;;;;;;;;;;4977123;28;21835;-82
2024/01/14 03:25:20;;;;;;;17.88;6.15;;;;;;;;;;4958602;28;20081;-80
2024/01/14 03:27:45;;;;;;;11.80;5.80;;;;;;;;;;4982305;28;20540;-82
2024/01/14 03:30:11;;;;;;;12.13;5.68;;;;;;;;;;4981678;28;21674;-80
2024/01/14 03:32:36;;;;;;;11.90;6.20;;;;;;;;;;4982566;28;20542;-82
2024/01/14 03:35:01;;;;;;;8.43;4.97;;;;;;;;;;4983082;28;20066;-81
2024/01/14 03:37:27;;;;;;;8.48;4.45;;;;;;;;;;4991599;28;20039;-81
2024/01/14 03:39:52;;;;;;;10.93;5.60;;;;;;;;;;4967234;28;20034;-81
2024/01/14 03:42:17;;;;;;;10.63;5.65;;;;;;;;;;4980613;28;20408;-81
2024/01/14 03:44:43;;;;;;;6.15;3.65;;;;;;;;;;4989920;28;20443;-81
2024/01/14 03:47:08;;;;;;;11.27;4.93;;;;;;;;;;4970345;28;20042;-82
2024/01/14 03:49:33;;;;;;;5.57;2.55;;;;;;;;;;4985856;28;20038;-80
2024/01/14 03:51:59;;;;;;;5.38;2.95;;;;;;;;;;4975862;28;20463;-81
2024/01/14 03:54:24;;;;;;;5.80;2.85;;;;;;;;;;4978451;28;20040;-82
2024/01/14 03:56:50;;;;;;;3.40;2.70;;;;;;;;;;4958001;28;20042;-81
2024/01/14 03:59:15;;;;;;;3.85;1.85;;;;;;;;;;4963594;28;20403;-82
2024/01/14 04:01:42;;;;;;;1.00;0.93;;;;;;;;;;4978646;28;20045;-82
2024/01/14 04:04:08;;;;;;;1.20;1.13;;;;;;;;;;4991114;28;20027;-81
2024/01/14 04:06:33;;;;;;;1.42;1.33;;;;;;;;;;4967820;28;20545;-82
2024/01/14 04:08:58;;;;;;;1.33;1.10;;;;;;;;;;4981233;28;20058;-79
2024/01/14 04:11:24;;;;;;;1.95;1.40;;;;;;;;;;4976588;28;20078;-82
2024/01/14 04:13:49;;;;;;;1.80;1.33;;;;;;;;;;4984490;28;20113;-82
2024/01/14 04:16:15;;;;;;;1.70;1.40;;;;;;;;;;4969770;28;20053;-81
2024/01/14 04:18:40;;;;;;;3.40;1.42;;;;;;;;;;4988139;28;20042;-80
2024/01/14 04:21:06;;;;;;;1.52;1.00;;;;;;;;;;4987683;28;20057;-81
2024/01/14 04:23:31;;;;;;;1.38;0.90;;;;;;;;;;4982300;28;21524;-82
2024/01/14 04:25:57;;;;;;;1.77;1.25;;;;;;;;;;4981717;28;20043;-82
2024/01/14 04:28:22;;;;;;;2.30;1.33;;;;;;;;;;4985646;28;20038;-81
2024/01/14 04:30:47;;;;;;;2.70;1.75;;;;;;;;;;4979675;28;20035;-81
2024/01/14 04:33:12;;;;;;;3.35;1.85;;;;;;;;;;4969927;28;20051;-81
2024/01/14 04:35:38;;;;;;;1.95;1.33;;;;;;;;;;4968273;28;20065;-80
2024/01/14 04:38:03;;;;;;;2.70;1.65;;;;;;;;;;4982971;28;20098;-82
2024/01/14 04:40:28;;;;;;;4.07;2.13;;;;;;;;;;4980212;28;20039;-82
2024/01/14 04:42:54;;;;;;;1.25;1.15;;;;;;;;;;4975041;28;20097;-80
2024/01/14 04:45:19;;;;;;;1.88;1.67;;;;;;;;;;4968049;28;20034;-83
2024/01/14 04:47:44;;;;;;;1.42;1.23;;;;;;;;;;4982989;28;20081;-82
2024/01/14 04:50:10;;;;;;;1.65;1.40;;;;;;;;;;4988697;28;20042;-82
2024/01/14 04:52:35;;;;;;;1.50;1.30;;;;;;;;;;4992574;28;20416;-82
2024/01/14 04:55:01;;;;;;;3.80;2.35;;;;;;;;;;4955080;28;20070;-82
2024/01/14 04:57:26;;;;;;;12.57;6.00;;;;;;;;;;4984424;28;20070;-82
2024/01/14 04:59:51;;;;;;;7.65;3.20;;;;;;;;;;4989399;28;20098;-79
2024/01/14 05:02:16;;;;;;;3.78;2.33;;;;;;;;;;4968742;28;20104;-79
2024/01/14 05:04:42;;;;;;;7.63;3.58;;;;;;;;;;4986958;28;20034;-81
2024/01/14 05:07:07;;;;;;;6.38;2.53;;;;;;;;;;4982602;28;20573;-81
2024/01/14 05:09:32;;;;;;;6.70;3.08;;;;;;;;;;4965100;28;20038;-82
2024/01/14 05:11:58;;;;;;;6.53;3.92;;;;;;;;;;4977905;28;20038;-82
2024/01/14 05:14:23;;;;;;;5.13;3.35;;;;;;;;;;4977721;28;20416;-81
2024/01/14 05:16:48;;;;;;;3.80;3.00;;;;;;;;;;4980622;28;20414;-82
2024/01/14 05:19:14;;;;;;;4.85;3.03;;;;;;;;;;4964803;28;20035;-81
2024/01/14 05:21:39;;;;;;;6.18;3.30;;;;;;;;;;4978300;28;20114;-82
2024/01/14 05:24:05;;;;;;;13.38;4.05;;;;;;;;;;4968045;28;20628;-82
2024/01/14 05:26:30;;;;;;;7.72;2.70;;;;;;;;;;4982544;28;20042;-80
2024/01/14 05:28:59;;;;;;;4.25;2.97;;;;;;;;;;4971897;28;20046;-81
2024/01/14 05:31:24;;;;;;;8.02;3.40;;;;;;;;;;4966330;28;20085;-82
2024/01/14 05:33:50;;;;;;;10.45;3.97;;;;;;;;;;4983907;28;20034;-80
2024/01/14 05:36:15;;;;;;;8.88;4.20;;;;;;;;;;4970013;28;20034;-82
2024/01/14 05:38:41;;;;;;;8.02;2.75;;;;;;;;;;4952793;28;20047;-79
2024/01/14 05:41:07;;;;;;;3.83;2.80;;;;;;;;;;4962086;28;20027;-80
2024/01/14 05:43:32;;;;;;;4.95;3.05;;;;;;;;;;4951961;28;20035;-81
2024/01/14 05:45:57;;;;;;;2.70;2.08;;;;;;;;;;4986000;28;20037;-81
2024/01/14 05:48:22;;;;;;;12.13;4.78;;;;;;;;;;4986030;28;20042;-81
2024/01/14 05:50:48;;;;;;;13.18;4.65;;;;;;;;;;4976814;28;20039;-82
2024/01/14 05:53:13;;;;;;;13.30;4.95;;;;;;;;;;4967070;28;20066;-82
2024/01/14 05:55:38;;;;;;;6.97;4.03;;;;;;;;;;4973850;28;20044;-80
2024/01/14 05:58:04;;;;;;;9.07;3.85;;;;;;;;;;4985395;28;20069;-80
2024/01/14 06:00:29;;;;;;;11.07;4.93;;;;;;;;;;4990280;28;20037;-80
2024/01/14 06:02:54;;;;;;;10.18;4.50;;;;;;;;;;4975979;28;20047;-81
2024/01/14 06:05:20;;;;;;;13.73;6.10;;;;;;;;;;4979463;28;20081;-81
2024/01/14 06:07:45;;;;;;;5.93;3.47;;;;;;;;;;4963580;28;20042;-81
2024/01/14 06:10:11;;;;;;;8.00;4.88;;;;;;;;;;4986121;28;20054;-81
2024/01/14 06:12:36;;;;;;;11.93;5.03;;;;;;;;;;4979202;28;20460;-81
2024/01/14 06:15:01;;;;;;;21.10;7.10;;;;;;;;;;4983117;28;21505;-80
2024/01/14 06:17:27;;;;;;;25.00;9.98;;;;;;;;;;4967344;28;20031;-81
2024/01/14 06:19:52;;;;;;;21.73;8.48;;;;;;;;;;4964533;28;20534;-81
2024/01/14 06:22:17;;;;;;;17.45;7.72;;;;;;;;;;4955750;28;20050;-81
2024/01/14 06:24:44;;;;;;;12.68;6.38;;;;;;;;;;4985299;28;20038;-79
2024/01/14 06:27:10;;;;;;;29.83;9.88;;;;;;;;;;4986883;28;20051;-80
2024/01/14 06:29:35;;;;;;;60.78;11.52;;;;;;;;;;4956631;28;20086;-81
2024/01/14 06:32:00;;;;;;;22.38;8.40;;;;;;;;;;4965474;28;20045;-82
2024/01/14 06:34:26;;;;;;;145.35;15.70;;;;;;;;;;4983768;28;21675;-81
2024/01/14 06:36:51;;;;;;;80.07;11.00;;;;;;;;;;4980245;28;20562;-81
2024/01/14 06:39:17;;;;;;;82.43;11.38;;;;;;;;;;4966122;28;20051;-81
2024/01/14 06:41:42;;;;;;;61.30;11.57;;;;;;;;;;4986355;28;20042;-82
2024/01/14 06:44:07;;;;;;;80.82;10.30;;;;;;;;;;4979665;28;20488;-81
2024/01/14 06:46:33;;;;;;;122.63;14.18;;;;;;;;;;4986895;28;20042;-80
2024/01/14 06:48:58;;;;;;;115.55;13.43;;;;;;;;;;4964218;28;20042;-80
2024/01/14 06:51:23;;;;;;;148.98;13.50;;;;;;;;;;4962787;28;20038;-80
2024/01/14 06:53:49;;;;;;;140.13;17.30;;;;;;;;;;4967835;28;20054;-82
2024/01/14 06:56:16;;;;;;;85.65;12.63;;;;;;;;;;4975010;28;20535;-82
2024/01/14 06:58:41;;;;;;;64.13;11.23;;;;;;;;;;4980165;28;20077;-79
2024/01/14 07:01:07;;;;;;;78.43;14.00;;;;;;;;;;4960756;28;20035;-82
2024/01/14 07:03:33;;;;;;;83.20;10.43;;;;;;;;;;4976558;28;20050;-80
2024/01/14 07:05:58;;;;;;;47.40;13.27;;;;;;;;;;4983672;28;20074;-80
2024/01/14 07:08:24;;;;;;;74.03;8.93;;;;;;;;;;4980149;28;20492;-80
2024/01/14 07:10:49;;;;;;;141.65;13.98;;;;;;;;;;4962053;28;20116;-81
2024/01/14 07:13:14;;;;;;;79.63;12.43;;;;;;;;;;4982585;28;20523;-81
2024/01/14 07:15:40;;;;;;;68.55;12.98;;;;;;;;;;4976962;28;20494;-80
2024/01/14 07:18:05;;;;;;;93.50;14.05;;;;;;;;;;4969036;28;20059;-80
2024/01/14 07:20:30;;;;;;;56.42;11.35;;;;;;;;;;4991324;28;20097;-80
2024/01/14 07:22:56;;;;;;;84.63;12.82;;;;;;;;;;4979330;28;20416;-81
2024/01/14 07:25:21;;;;;;;100.25;16.20;;;;;;;;;;4960931;28;20038;-80
2024/01/14 07:27:46;;;;;;;115.93;15.82;;;;;;;;;;4980745;28;20503;-80
2024/01/14 07:30:12;;;;;;;62.78;11.35;;;;;;;;;;4982254;28;20043;-81
2024/01/14 07:32:37;;;;;;;114.50;16.90;;;;;;;;;;4974288;28;20039;-80
2024/01/14 07:35:03;;;;;;;89.13;16.38;;;;;;;;;;4986955;28;20037;-81
2024/01/14 07:37:30;;;;;;;56.45;12.32;;;;;;;;;;4986150;28;20515;-82
2024/01/14 07:39:55;;;;;;;20.02;7.75;;;;;;;;;;4969767;28;20035;-78
2024/01/14 07:42:21;;;;;;;32.05;8.10;;;;;;;;;;4947211;28;20050;-82
2024/01/14 07:44:46;;;;;;;107.63;13.38;;;;;;;;;;4967475;28;20184;-81
2024/01/14 07:47:11;;;;;;;18.50;7.55;;;;;;;;;;4979721;28;20552;-81
2024/01/14 07:49:37;;;;;;;115.97;13.25;;;;;;;;;;4985411;28;20463;-82
2024/01/14 07:52:02;;;;;;;109.85;12.98;;;;;;;;;;4983908;28;20438;-80
2024/01/14 07:54:27;;;;;;;77.38;12.43;;;;;;;;;;4983783;28;20099;-81
2024/01/14 07:56:53;;;;;;;96.68;12.70;;;;;;;;;;4977714;28;20062;-82
2024/01/14 07:59:20;;;;;;;42.88;9.15;;;;;;;;;;4962616;28;20527;-81
2024/01/14 08:01:46;;;;;;;71.03;13.80;;;;;;;;;;4975288;28;20042;-82
2024/01/14 08:04:11;;;;;;;56.40;9.57;;;;;;;;;;4982544;28;20578;-81
2024/01/14 08:06:37;;;;;;;69.40;13.07;;;;;;;;;;4961263;28;20031;-82
2024/01/14 08:09:02;;;;;;;17.27;7.57;;;;;;;;;;4986287;28;20526;-80
2024/01/14 08:11:27;;;;;;;28.90;9.73;;;;;;;;;;4972594;28;20038;-81
2024/01/14 08:13:53;;;;;;;64.75;11.75;;;;;;;;;;4972755;28;20042;-81
2024/01/14 08:16:18;;;;;;;71.75;11.82;;;;;;;;;;4981097;28;20045;-82
2024/01/14 08:18:43;;;;;;;179.45;15.57;;;;;;;;;;4980628;28;20030;-82
2024/01/14 08:21:10;;;;;;;130.60;13.85;;;;;;;;;;4982742;28;20051;-80
2024/01/14 08:23:36;;;;;;;95.63;12.85;;;;;;;;;;4967001;28;20516;-82
2024/01/14 08:26:02;;;;;;;77.97;19.33;;;;;;;;;;4985961;28;20045;-81
2024/01/14 08:28:27;;;;;;;46.72;11.57;;;;;;;;;;4980506;28;20050;-81
2024/01/14 08:30:52;;;;;;;141.52;15.60;;;;;;;;;;4989504;28;20039;-82
2024/01/14 08:33:18;;;;;;;259.55;20.38;;;;;;;;;;4960163;28;20114;-80
2024/01/14 08:35:43;;;;;;;114.63;16.15;;;;;;;;;;4980403;28;20519;-79
2024/01/14 08:38:08;;;;;;;61.40;13.35;;;;;;;;;;4986286;28;20129;-83
2024/01/14 08:40:34;;;;;;;167.20;16.35;;;;;;;;;;4974709;28;20223;-80
2024/01/14 08:42:59;;;;;;;169.75;16.25;;;;;;;;;;4955634;28;20050;-82
2024/01/14 08:45:24;;;;;;;687.80;34.50;;;;;;;;;;4972507;28;20034;-81
2024/01/14 08:47:50;;;;;;;300.95;20.02;;;;;;;;;;4970674;28;20042;-81
2024/01/14 08:50:15;;;;;;;40.95;14.63;;;;;;;;;;4960012;28;20062;-81
2024/01/14 08:52:41;;;;;;;48.00;14.93;;;;;;;;;;4963696;28;20045;-81
2024/01/14 08:55:08;;;;;;;111.10;14.75;;;;;;;;;;4976184;28;20050;-80
2024/01/14 08:57:33;;;;;;;144.10;16.13;;;;;;;;;;4967126;28;20101;-80
2024/01/14 08:59:58;;;;;;;51.13;13.75;;;;;;;;;;4964141;28;20082;-79
2024/01/14 09:02:25;;;;;;;37.28;14.27;;;;;;;;;;4969404;28;20027;-82
2024/01/14 09:04:50;;;;;;;179.00;16.95;;;;;;;;;;4978017;28;20037;-81
2024/01/14 09:07:15;;;;;;;124.03;15.57;;;;;;;;;;4962488;28;20031;-82
2024/01/14 09:09:40;;;;;;;94.32;14.95;;;;;;;;;;4981527;28;21584;-82
2024/01/14 09:12:06;;;;;;;275.15;21.30;;;;;;;;;;4962529;28;20042;-81
2024/01/14 09:14:32;;;;;;;37.15;12.70;;;;;;;;;;4985348;28;20051;-81
2024/01/14 09:16:57;;;;;;;224.45;20.30;;;;;;;;;;4965330;28;20208;-80
2024/01/14 09:19:22;;;;;;;45.95;14.18;;;;;;;;;;4985518;28;20104;-82
2024/01/14 09:21:47;;;;;;;154.73;16.63;;;;;;;;;;4981027;28;20050;-81
2024/01/14 09:24:13;;;;;;;52.22;12.65;;;;;;;;;;4951717;28;20049;-81
2024/01/14 09:26:38;;;;;;;25.65;11.50;;;;;;;;;;4961594;28;20070;-79
2024/01/14 09:29:04;;;;;;;88.50;13.25;;;;;;;;;;4975340;28;21782;-81
2024/01/14 09:31:29;;;;;;;137.10;15.45;;;;;;;;;;4966039;28;20095;-82
2024/01/14 09:33:54;;;;;;;23.60;11.13;;;;;;;;;;4981890;28;20096;-81
2024/01/14 09:36:20;;;;;;;31.45;12.05;;;;;;;;;;4975973;28;20042;-80
2024/01/14 09:38:45;;;;;;;25.63;11.15;;;;;;;;;;4968590;28;20042;-81
2024/01/14 09:41:10;;;;;;;29.17;12.20;;;;;;;;;;4974201;28;20140;-82
2024/01/14 09:43:40;;;;;;;109.22;15.60;;;;;;;;;;4980543;28;20062;-82
2024/01/14 09:46:06;;;;;;;51.20;11.77;;;;;;;;;;4976831;28;20050;-81
2024/01/14 09:48:32;;;;;;;23.42;10.20;;;;;;;;;;4978875;28;20127;-81
2024/01/14 09:51:00;;;;;;;26.25;10.85;;;;;;;;;;4946872;28;20034;-80
2024/01/14 09:53:28;;;;;;;26.55;11.85;;;;;;;;;;4983334;28;20038;-82
2024/01/14 09:55:54;;;;;;;24.55;11.30;;;;;;;;;;4981951;28;20066;-79
2024/01/14 09:58:20;;;;;;;47.88;11.93;;;;;;;;;;4988041;28;20046;-81
2024/01/14 10:00:47;;;;;;;33.72;11.85;;;;;;;;;;4972151;28;20035;-82
2024/01/14 10:03:13;;;;;;;34.88;14.35;;;;;;;;;;4982353;28;20042;-82
2024/01/14 10:05:39;;;;;;;46.78;16.27;;;;;;;;;;4983205;28;20041;-80
2024/01/14 10:08:04;;;;;;;33.28;13.45;;;;;;;;;;4966186;28;20040;-81
2024/01/14 10:10:31;;;;;;;34.50;14.85;;;;;;;;;;4977249;28;20129;-81
2024/01/14 10:12:56;;;;;;;314.77;21.70;;;;;;;;;;4959894;28;20123;-81
2024/01/14 10:15:22;;;;;;;33.78;11.55;;;;;;;;;;4979717;28;20038;-81
2024/01/14 10:17:47;;;;;;;273.05;21.92;;;;;;;;;;4978201;28;20018;-81
2024/01/14 10:20:13;;;;;;;27.08;12.95;;;;;;;;;;4981299;28;20416;-82
2024/01/14 10:22:42;;;;;;;47.20;12.35;;;;;;;;;;4964915;28;20101;-82
2024/01/14 10:25:07;;;;;;;31.27;13.65;;;;;;;;;;4980021;28;20039;-83
2024/01/14 10:27:32;;;;;;;32.75;14.13;;;;;;;;;;4978040;28;20045;-82
2024/01/14 10:29:58;;;;;;;56.40;12.38;;;;;;;;;;4960230;28;20109;-81
2024/01/14 10:32:23;;;;;;;30.23;12.90;;;;;;;;;;4978237;28;20062;-83
2024/01/14 10:34:52;;;;;;;29.38;14.15;;;;;;;;;;4965335;28;20069;-82
2024/01/14 10:37:19;;;;;;;30.13;12.98;;;;;;;;;;4981383;28;20058;-81
2024/01/14 10:39:44;;;;;;;27.83;11.88;;;;;;;;;;4977754;28;20514;-82
2024/01/14 10:42:09;;;;;;;37.00;15.45;;;;;;;;;;4961890;28;20046;-82
2024/01/14 10:44:35;;;;;;;31.35;12.95;;;;;;;;;;4983319;28;20031;-82
2024/01/14 10:47:02;;;;;;;29.05;13.30;;;;;;;;;;4984159;28;20041;-82
2024/01/14 10:49:28;;;;;;;27.50;12.48;;;;;;;;;;4985422;28;20054;-81
2024/01/14 10:52:00;;;;;;;30.27;13.38;;;;;;;;;;4963009;28;20500;-81
2024/01/14 10:54:44;;;;;;;32.40;12.30;;;;;;;;;;4976849;28;20094;-81
2024/01/14 10:57:23;;;;;;;52.85;13.50;;;;;;;;;;4988338;28;20039;-82
2024/01/14 10:59:57;;;;;;;25.35;11.68;;;;;;;;;;4965339;28;20455;-83
2024/01/14 11:02:27;;;;;;;42.40;10.95;;;;;;;;;;4983140;28;20030;-83
2024/01/14 11:04:52;;;;;;;25.80;12.00;;;;;;;;;;4979937;28;20150;-82
2024/01/14 11:07:18;;;;;;;25.30;11.10;;;;;;;;;;4961662;28;20066;-81
2024/01/14 11:09:44;;;;;;;29.33;11.55;;;;;;;;;;4989153;28;20034;-82
2024/01/14 11:12:19;;;;;;;30.27;11.18;;;;;;;;;;4989651;28;20026;-83
2024/01/14 11:14:54;;;;;;;26.50;12.25;;;;;;;;;;4970203;28;20534;-83
2024/01/14 11:17:38;;;;;;;32.28;13.18;;;;;;;;;;4988669;28;20053;-83
2024/01/14 11:20:06;;;;;;;22.52;11.75;;;;;;;;;;4970336;28;20042;-83
2024/01/14 11:22:31;;;;;;;30.20;10.52;;;;;;;;;;4984079;28;20407;-81
2024/01/14 11:24:56;;;;;;;23.42;10.63;;;;;;;;;;4979824;28;20039;-83
2024/01/14 11:27:22;;;;;;;27.92;8.52;;;;;;;;;;4988327;28;20038;-82
2024/01/14 11:29:47;;;;;;;21.77;11.45;;;;;;;;;;4987730;28;20063;-82
2024/01/14 11:32:13;;;;;;;18.63;9.68;;;;;;;;;;4965082;28;20047;-81
2024/01/14 11:34:48;;;;;;;29.02;10.77;;;;;;;;;;4975997;28;20503;-82
2024/01/14 11:37:29;;;;;;;17.00;8.68;;;;;;;;;;4977888;28;20236;-81
2024/01/14 11:40:08;;;;;;;20.60;9.25;;;;;;;;;;4964980;28;20048;-80
2024/01/14 11:43:02;;;;;;;20.70;9.38;;;;;;;;;;4977957;28;20142;-82
2024/01/14 11:45:27;;;;;;;25.45;8.68;;;;;;;;;;4972457;28;20042;-81
2024/01/14 11:47:56;;;;;;;14.60;6.00;;;;;;;;;;4983330;28;20038;-83
2024/01/14 11:50:25;;;;;;;17.98;8.35;;;;;;;;;;4982257;28;20131;-82
2024/01/14 11:52:52;;;;;;;22.70;10.00;;;;;;;;;;4980615;28;20098;-82
2024/01/14 11:55:18;;;;;;;21.20;10.07;;;;;;;;;;4969530;28;20043;-84
2024/01/14 11:57:47;;;;;;;22.77;10.88;;;;;;;;;;4984155;28;20069;-80
2024/01/14 12:00:12;;;;;;;19.73;8.25;;;;;;;;;;4989499;28;20081;-83
2024/01/14 12:02:38;;;;;;;18.10;9.02;;;;;;;;;;4968664;28;20054;-82
2024/01/14 12:05:20;;;;;;;21.95;10.63;;;;;;;;;;4976936;28;20161;-83
2024/01/14 12:07:46;;;;;;;22.70;10.45;;;;;;;;;;4963839;28;20043;-82
2024/01/14 12:10:15;;;;;;;19.63;10.02;;;;;;;;;;4981749;28;20062;-82
2024/01/14 12:12:42;;;;;;;21.33;9.85;;;;;;;;;;4989227;28;20045;-82
2024/01/14 12:15:09;;;;;;;18.65;9.23;;;;;;;;;;4967200;28;20122;-83
2024/01/14 12:17:34;;;;;;;17.38;9.25;;;;;;;;;;4986468;28;20039;-81
2024/01/14 12:20:01;;;;;;;20.38;9.93;;;;;;;;;;4988719;28;20035;-82
2024/01/14 12:22:27;;;;;;;21.90;10.05;;;;;;;;;;4952040;28;20133;-81
2024/01/14 12:24:52;;;;;;;23.17;10.60;;;;;;;;;;4976866;28;20050;-80
2024/01/14 12:27:18;;;;;;;19.13;8.85;;;;;;;;;;4978562;28;20113;-81
2024/01/14 12:29:43;;;;;;;19.92;9.48;;;;;;;;;;4982161;28;20049;-82
2024/01/14 12:32:09;;;;;;;26.38;10.32;;;;;;;;;;4973415;28;20174;-81
2024/01/14 12:34:38;;;;;;;18.30;8.20;;;;;;;;;;4978315;28;20432;-81
2024/01/14 12:37:03;;;;;;;20.05;9.30;;;;;;;;;;4981980;28;20126;-81
2024/01/14 12:39:28;;;;;;;23.27;9.00;;;;;;;;;;4970477;28;20062;-82
2024/01/14 12:41:54;;;;;;;17.65;9.65;;;;;;;;;;4984417;28;20077;-81
2024/01/14 12:44:20;;;;;;;25.67;10.82;;;;;;;;;;4986095;28;20110;-81
2024/01/14 12:46:50;;;;;;;20.98;9.20;;;;;;;;;;4970620;28;20042;-82
2024/01/14 12:49:15;;;;;;;21.25;10.10;;;;;;;;;;4983288;28;20555;-79
2024/01/14 12:51:41;;;;;;;21.42;9.50;;;;;;;;;;4983588;28;20156;-79
2024/01/14 12:54:06;;;;;;;19.52;10.30;;;;;;;;;;4957090;28;20031;-78
2024/01/14 12:56:31;;;;;;;21.63;10.63;;;;;;;;;;4984054;28;20412;-80
2024/01/14 12:58:57;;;;;;;21.70;9.73;;;;;;;;;;4987973;28;20038;-79
2024/01/14 13:01:22;;;;;;;22.80;9.70;;;;;;;;;;4973149;28;20031;-78
2024/01/14 13:03:47;;;;;;;21.00;9.95;;;;;;;;;;4980148;28;20042;-78
2024/01/14 13:06:12;;;;;;;18.65;8.55;;;;;;;;;;4988751;28;20166;-80
2024/01/14 13:08:38;;;;;;;18.17;8.32;;;;;;;;;;4989040;28;20121;-80
2024/01/14 13:11:04;;;;;;;20.55;10.40;;;;;;;;;;4985458;28;20049;-79
2024/01/14 13:13:30;;;;;;;27.13;11.43;;;;;;;;;;4988722;28;20042;-79
2024/01/14 13:15:55;;;;;;;22.88;10.68;;;;;;;;;;4960842;28;20113;-78
2024/01/14 13:18:21;;;;;;;21.73;11.20;;;;;;;;;;4988794;28;20469;-78
2024/01/14 13:20:47;;;;;;;21.70;9.80;;;;;;;;;;4961238;28;20065;-80
2024/01/14 13:23:12;;;;;;;23.27;10.85;;;;;;;;;;4959945;28;20054;-79
2024/01/14 13:25:38;;;;;;;15.95;8.88;;;;;;;;;;4973452;28;20042;-79
2024/01/14 13:28:04;;;;;;;18.30;8.88;;;;;;;;;;4970425;28;20061;-78
2024/01/14 13:30:29;;;;;;;22.23;9.65;;;;;;;;;;4983224;28;20042;-80
2024/01/14 13:32:54;;;;;;;19.63;10.52;;;;;;;;;;4951193;28;20041;-80
2024/01/14 13:35:20;;;;;;;23.75;11.20;;;;;;;;;;4972275;28;20685;-79
2024/01/14 13:37:46;;;;;;;20.85;9.93;;;;;;;;;;4986400;28;20050;-80
2024/01/14 13:40:12;;;;;;;22.13;10.40;;;;;;;;;;4966828;28;20038;-78
2024/01/14 13:42:38;;;;;;;20.88;10.57;;;;;;;;;;4965388;28;20424;-78
2024/01/14 13:45:04;;;;;;;20.55;10.50;;;;;;;;;;4992093;28;20040;-78
2024/01/14 13:47:29;;;;;;;19.08;10.45;;;;;;;;;;4962642;28;20502;-80
2024/01/14 13:49:54;;;;;;;24.92;11.10;;;;;;;;;;4987362;28;20030;-79
2024/01/14 13:52:20;;;;;;;20.33;9.88;;;;;;;;;;4981657;28;20035;-79
2024/01/14 13:54:45;;;;;;;23.02;10.75;;;;;;;;;;4986527;28;20053;-78
2024/01/14 13:57:11;;;;;;;21.13;9.88;;;;;;;;;;4989649;28;20042;-80
2024/01/14 13:59:37;;;;;;;24.50;11.63;;;;;;;;;;4980100;28;20523;-80
2024/01/14 14:02:03;;;;;;;21.88;10.32;;;;;;;;;;4989658;28;20038;-78
2024/01/14 14:04:28;;;;;;;23.63;10.68;;;;;;;;;;4982978;28;20039;-78
2024/01/14 14:06:54;;;;;;;21.73;11.48;;;;;;;;;;4978663;28;20089;-79
2024/01/14 14:09:19;;;;;;;23.48;11.23;;;;;;;;;;4985911;28;20046;-77
2024/01/14 14:11:45;;;;;;;22.27;11.05;;;;;;;;;;4971244;28;20031;-79
2024/01/14 14:14:10;;;;;;;22.95;10.95;;;;;;;;;;4984478;28;20042;-79
2024/01/14 14:16:37;;;;;;;22.20;11.43;;;;;;;;;;4984811;28;20034;-80